Terminal Aerodrome Forecast
Issued by NWS

Home | Current Version | Previous Version | Graphics & Text | Print | Product List | Glossary On
Versions: 1 2 3 4 5 6 7 8 9 10 11 12 13 14 15 16 17
000
FTUS43 KGRB 252320
TAFCWA
TAF
KCWA 252320Z 2600/2624 31009KT P6SM BKN018 OVC035
     FM260400 31004KT P6SM SCT020 SCT040
      TEMPO 2609/2612 1SM BR SCT003
     FM261400 32007KT P6SM SCT030
      TEMPO 2614/2617 BKN030
     FM262000 33006KT P6SM SCT040
      AMD LTD TO CLD VIS AND WIND 2603/2611=

USA.gov is the U.S. government's official web portal to all federal, state and local government web resources and services.